Flight Track Log - Related Links

Times and Time Zones

All times are in EDT time to prevent confusion due to time zone crossing. See the UAL4476 flight status page for this flight to view local times or setup timezone preferences in your user account.

Time Position Orientation Groundspeed Altitude Reporting Facility
EDT Latitude Longitude Course Direction KTS MPH feet Rate Location/Type
Thu 10:05:14 AM 42.3667 -70.9667 304° West 169 194 700  Level KA90
Thu 10:05:56 AM 42.3667 -70.9333 90° East 166 191 2,100 1,889 Climbing KA90
Thu 10:07:02 AM 42.3833 -70.8500 75° East 221 254 4,100 1,900 Climbing KA90
Thu 10:07:56 AM 42.4167 -70.7833 56° Northeast 249 287 5,900 2,050 Climbing KA90
Thu 10:09:00 AM 42.6700 -71.0211 300° West  Level FlightAware
Thu 10:09:02 AM 42.5000 -70.7833 360° North 260 299 8,200  Level KA90
Thu 10:09:42 AM 42.5308 -70.8314 311° West 295 339 9,300 1,286 Climbing Boston Center
Thu 10:10:00 AM 42.7210 -71.1420 304° West  Level FlightAware
Thu 10:10:40 AM 42.5756 -70.9092 308° West 295 339 10,300  Level Boston Center
Thu 10:11:41 AM 42.6375 -71.0206 307° West 321 369 11,500 1,190 Climbing Boston Center
Thu 10:12:41 AM 42.6886 -71.1125 307° West 346 398 12,700 1,450 Climbing Boston Center
Thu 10:13:41 AM 42.7525 -71.2269 307° West 351 404 14,400 1,462 Climbing Boston Center
Thu 10:14:40 AM 42.7847 -71.3367 292° West 344 396 15,600 1,109 Climbing Boston Center
Thu 10:15:40 AM 42.8008 -71.4864 278° West 352 405 16,600 1,050 Climbing Boston Center
Thu 10:16:40 AM 42.8122 -71.6081 277° West 372 428 17,700 1,140 Climbing Boston Center
Thu 10:17:41 AM 42.8278 -71.7578 278° West 372 428 18,900 1,180 Climbing Boston Center
Thu 10:18:42 AM 42.8408 -71.8964 277° West 372 428 20,100 1,140 Climbing Boston Center
Thu 10:19:42 AM 42.8539 -72.0322 278° West 372 428 21,200 966 Climbing Boston Center
Thu 10:20:40 AM 42.8669 -72.1767 277° West 372 428 22,000 864 Climbing Boston Center
Thu 10:21:40 AM 42.8858 -72.3042 281° West 377 434 22,900 1,041 Climbing Boston Center
Thu 10:22:41 AM 42.9006 -72.4458 278° West 382 440 24,100 1,339 Climbing Boston Center
Thu 10:23:41 AM 42.9089 -72.5817 275° West 377 434 25,600 1,866 Climbing Boston Center
Thu 10:24:40 AM 42.9169 -72.7292 274° West 364 419 27,800 1,563 Climbing Boston Center
Thu 10:25:40 AM 42.9289 -72.8542 277° West 353 406 28,700 738 Climbing Boston Center
Thu 10:26:42 AM 42.9389 -72.9875 276° West 347 399 29,300 639 Climbing Boston Center
Thu 10:27:42 AM 42.9506 -73.1264 277° West 360 414 30,000 966 Climbing Boston Center
Thu 10:28:40 AM 42.9622 -73.2656 277° West 366 421 31,200 1,169 Climbing Boston Center
Thu 10:29:40 AM 42.9675 -73.3878 273° West 366 421 32,300 1,100 Climbing Boston Center
Thu 10:30:40 AM 42.9789 -73.5242 277° West 366 421 33,400 992 Climbing Boston Center
Thu 10:31:41 AM 42.9900 -73.6633 276° West 366 421 34,300 942 Climbing Boston Center
Thu 10:32:41 AM 43.0008 -73.7969 276° West 366 421 35,300 843 Climbing Boston Center
Thu 10:33:42 AM 43.0117 -73.9336 276° West 366 421 36,000 353 Climbing Boston Center
Thu 10:34:40 AM 43.0222 -74.0758 276° West 372 428 36,000  Level Boston Center
Thu 10:35:40 AM 43.0325 -74.2239 275° West 380 437 36,000  Level Boston Center
Thu 10:36:40 AM 43.0425 -74.3775 275° West 402 463 36,000  Level Boston Center
Thu 10:37:41 AM 43.0544 -74.5342 276° West 412 474 36,000  Level Boston Center
Thu 10:38:41 AM 43.0661 -74.6881 276° West 412 474 36,000  Level Boston Center
Thu 10:39:42 AM 43.0750 -74.8533 274° West 412 474 36,000  Level Boston Center
Thu 10:40:42 AM 43.0864 -75.0072 276° West 407 468 36,000  Level Boston Center
Thu 10:41:39 AM 43.0953 -75.1614 275° West 407 468 36,000  Level Boston Center
Thu 10:42:40 AM 43.1061 -75.3181 275° West 407 468 36,000  Level Boston Center
Thu 10:43:41 AM 43.1147 -75.4694 275° West 407 468 36,000  Level Boston Center
Thu 10:44:42 AM 43.1253 -75.6178 276° West 407 468 36,000  Level Boston Center
Thu 10:45:39 AM 43.1356 -75.7692 275° West 401 461 36,000  Level Boston Center
Thu 10:46:40 AM 43.1433 -75.9206 274° West 401 461 36,000  Level Boston Center
Thu 10:47:40 AM 43.1533 -76.0692 275° West 407 468 36,000  Level Boston Center
Thu 10:49:18 AM 43.1278 -76.3186 262° West 407 468 36,000  Level Cleveland Center
Thu 10:50:18 AM 43.0769 -76.4672 245° Southwest 424 488 36,000  Level Cleveland Center
Thu 10:51:18 AM 43.0319 -76.6150 247° West 424 488 36,000  Level Cleveland Center
Thu 10:52:18 AM 42.9847 -76.7600 246° West 424 488 36,000  Level Cleveland Center
Thu 10:53:18 AM 42.9375 -76.9075 246° West 424 488 36,000  Level Cleveland Center
Thu 10:54:18 AM 42.8897 -77.0519 246° West 424 488 36,000  Level Cleveland Center
Thu 10:55:18 AM 42.8294 -77.1914 240° Southwest 429 494 36,000  Level Cleveland Center
Thu 10:56:18 AM 42.7708 -77.3333 241° Southwest 429 494 36,000  Level Cleveland Center
Thu 10:57:18 AM 42.7122 -77.4692 240° Southwest 429 494 36,000  Level Cleveland Center
Thu 10:58:18 AM 42.6492 -77.6164 240° Southwest 439 505 36,000  Level Cleveland Center
Thu 10:59:18 AM 42.5883 -77.7572 240° Southwest 439 505 36,000  Level Cleveland Center
Thu 11:00:18 AM 42.5308 -77.8867 239° Southwest 448 516 36,000  Level Cleveland Center
Thu 11:01:18 AM 42.4733 -78.0186 239° Southwest 435 501 36,000  Level Cleveland Center
Thu 11:02:18 AM 42.4158 -78.1533 240° Southwest 429 494 36,000  Level Cleveland Center
Thu 11:03:18 AM 42.3583 -78.2903 240° Southwest 429 494 36,000 -450 Level Cleveland Center
Thu 11:04:18 AM 42.2981 -78.4189 238° Southwest 429 494 35,100 -900 Descending Cleveland Center
Thu 11:05:18 AM 42.2403 -78.5525 240° Southwest 418 481 34,200 -550 Descending Cleveland Center
Thu 11:06:18 AM 42.1819 -78.6861 240° Southwest 418 481 34,000 -150 Descending Cleveland Center
Thu 11:07:18 AM 42.1236 -78.8194 239° Southwest 413 475 33,900 -550 Descending Cleveland Center
Thu 11:08:18 AM 42.0861 -78.9606 250° West 408 470 32,900 -1,050 Descending Cleveland Center
Thu 11:09:18 AM 42.0506 -79.1094 252° West 413 475 31,800 -1,050 Descending Cleveland Center
Thu 11:10:18 AM 42.0169 -79.2528 253° West 413 475 30,800 -1,150 Descending Cleveland Center
Thu 11:11:18 AM 41.9769 -79.4072 251° West 407 468 29,500 -1,450 Descending Cleveland Center
Thu 11:12:18 AM 41.9386 -79.5558 251° West 412 474 27,900 -1,450 Descending Cleveland Center
Thu 11:13:18 AM 41.9044 -79.6931 252° West 418 481 26,600 -1,400 Descending Cleveland Center
Thu 11:14:18 AM 41.8658 -79.8414 251° West 432 497 25,100 -1,550 Descending Cleveland Center
Thu 11:15:18 AM 41.8250 -79.9925 250° West 427 491 23,500 -1,600 Descending Cleveland Center
Thu 11:16:18 AM 41.7881 -80.1375 251° West 422 486 21,900 -1,550 Descending Cleveland Center
Thu 11:17:18 AM 41.7492 -80.2825 250° West 417 480 20,400 -1,550 Descending Cleveland Center
Thu 11:18:18 AM 41.7119 -80.4219 250° West 406 467 18,800 -1,600 Descending Cleveland Center
Thu 11:19:18 AM 41.6744 -80.5719 252° West 401 461 17,200 -1,750 Descending Cleveland Center
Thu 11:20:18 AM 41.6389 -80.7053 250° West 394 453 15,300 -1,947 Descending Cleveland Center
Thu 11:21:12 AM 41.6075 -80.8247 251° West 388 447 13,500 -2,067 Descending Cleveland Center
Thu 11:21:48 AM 41.5842 -80.9078 249° West 387 445 12,200 -2,000 Descending Cleveland Center
Thu 11:22:18 AM 41.5694 -80.9689 252° West 388 447 11,300 -1,612 Descending Cleveland Center
Thu 11:22:55 AM 41.5464 -81.0547 250° West 361 415 10,400 -848 Descending Cleveland Center
Thu 11:23:50 AM 41.5167 -81.1600 249° West 362 417 10,000 -148 Descending Cleveland Center
Thu 11:24:57 AM 41.4969 -81.3122 260° West 364 419 10,100 50 Climbing Cleveland Center
Thu 11:25:51 AM 41.4794 -81.4311 259° West 358 412 10,100 -52 Level Cleveland Center
Thu 11:26:52 AM 41.4617 -81.5583 259° West 354 407 10,000 -443 Descending Cleveland Center
Thu 11:27:53 AM 41.4256 -81.6575 244° Southwest 283 326 9,200 -1,033 Descending Cleveland Center
Thu 11:28:54 AM 41.3767 -81.7425 233° Southwest 287 330 7,900 -1,537 Descending Cleveland Center
Thu 11:29:54 AM 41.3300 -81.8275 234° Southwest 282 325 6,100 -2,033 Descending Cleveland Center
Thu 11:30:55 AM 41.2853 -81.9094 234° Southwest 277 319 3,800 -1,343 Descending Cleveland Center
Thu 11:32:08 AM 41.2486 -82.0136 245° Southwest 254 292 3,100 -331 Descending Cleveland Center
Thu 11:33:02 AM 41.3028 -82.0175 357° North 248 285 3,100 -261 Level Cleveland Center
Thu 11:34:03 AM 41.3472 -81.9606 44° Northeast 205 236 2,600 -703 Descending Cleveland Center
Thu 11:35:10 AM 41.3747 -81.9114 53° Northeast 147 169 1,600 -896 Descending Cleveland Center

Login

Don't have an account? Register now (free) for customized features, flight alerts, and more!